sensor_id;sensor_type;location;lat;lon;timestamp;pressure;altitude;pressure_sealevel;temperature;humidity
12973;BME280;6551;51.056;9.466;2023-01-29T00:02:03;98807.25;;;0.10;70.41
12973;BME280;6551;51.056;9.466;2023-01-29T00:04:31;98800.03;;;0.02;70.90
12973;BME280;6551;51.056;9.466;2023-01-29T00:06:58;98800.78;;;-0.07;71.40
12973;BME280;6551;51.056;9.466;2023-01-29T00:09:26;98803.19;;;-0.15;71.18
12973;BME280;6551;51.056;9.466;2023-01-29T00:11:53;98803.69;;;-0.21;72.70
12973;BME280;6551;51.056;9.466;2023-01-29T00:14:19;98788.97;;;-0.33;72.07
12973;BME280;6551;51.056;9.466;2023-01-29T00:16:46;98788.16;;;-0.34;72.34
12973;BME280;6551;51.056;9.466;2023-01-29T00:19:12;98789.56;;;-0.41;73.05
12973;BME280;6551;51.056;9.466;2023-01-29T00:21:37;98773.91;;;-0.52;73.55
12973;BME280;6551;51.056;9.466;2023-01-29T00:24:04;98777.72;;;-0.56;73.80
12973;BME280;6551;51.056;9.466;2023-01-29T00:26:31;98773.44;;;-0.57;74.26
12973;BME280;6551;51.056;9.466;2023-01-29T00:28:58;98768.59;;;-0.73;74.23
12973;BME280;6551;51.056;9.466;2023-01-29T00:31:27;98774.53;;;-0.71;74.72
12973;BME280;6551;51.056;9.466;2023-01-29T00:33:53;98771.22;;;-0.73;74.61
12973;BME280;6551;51.056;9.466;2023-01-29T00:36:20;98767.53;;;-0.70;74.79
12973;BME280;6551;51.056;9.466;2023-01-29T00:38:54;98775.59;;;-0.62;74.42
12973;BME280;6551;51.056;9.466;2023-01-29T00:41:29;98766.44;;;-0.56;75.14
12973;BME280;6551;51.056;9.466;2023-01-29T00:44:15;98762.03;;;-0.56;75.04
12973;BME280;6551;51.056;9.466;2023-01-29T00:46:59;98749.03;;;-0.46;75.43
12973;BME280;6551;51.056;9.466;2023-01-29T00:49:25;98751.78;;;-0.48;75.38
12973;BME280;6551;51.056;9.466;2023-01-29T00:51:52;98751.41;;;-0.43;74.63
12973;BME280;6551;51.056;9.466;2023-01-29T00:54:38;98751.91;;;-0.49;74.41
12973;BME280;6551;51.056;9.466;2023-01-29T00:57:05;98741.59;;;-0.51;74.13
12973;BME280;6551;51.056;9.466;2023-01-29T00:59:32;98738.00;;;-0.50;74.21
12973;BME280;6551;51.056;9.466;2023-01-29T01:01:57;98739.44;;;-0.57;73.91
12973;BME280;6551;51.056;9.466;2023-01-29T01:04:42;98739.22;;;-0.54;74.59
12973;BME280;6551;51.056;9.466;2023-01-29T01:07:09;98737.44;;;-0.53;73.86
12973;BME280;6551;51.056;9.466;2023-01-29T01:09:36;98735.16;;;-0.58;73.72
12973;BME280;6551;51.056;9.466;2023-01-29T01:12:21;98741.16;;;-0.67;74.22
12973;BME280;6551;51.056;9.466;2023-01-29T01:14:48;98733.06;;;-0.64;73.99
12973;BME280;6551;51.056;9.466;2023-01-29T01:17:14;98730.50;;;-0.86;74.38
12973;BME280;6551;51.056;9.466;2023-01-29T01:19:43;98726.28;;;-0.78;75.06
12973;BME280;6551;51.056;9.466;2023-01-29T01:22:09;98733.91;;;-0.86;74.79
12973;BME280;6551;51.056;9.466;2023-01-29T01:24:35;98737.03;;;-0.92;74.33
12973;BME280;6551;51.056;9.466;2023-01-29T01:27:01;98733.13;;;-0.97;74.52
12973;BME280;6551;51.056;9.466;2023-01-29T01:29:28;98749.25;;;-0.92;75.02
12973;BME280;6551;51.056;9.466;2023-01-29T01:31:56;98750.56;;;-0.98;75.35
12973;BME280;6551;51.056;9.466;2023-01-29T01:34:23;98750.56;;;-0.98;75.54
12973;BME280;6551;51.056;9.466;2023-01-29T01:36:50;98761.03;;;-0.98;74.96
12973;BME280;6551;51.056;9.466;2023-01-29T01:39:15;98763.41;;;-0.95;74.68
12973;BME280;6551;51.056;9.466;2023-01-29T01:41:41;98759.25;;;-0.97;74.99
12973;BME280;6551;51.056;9.466;2023-01-29T01:45:00;98768.03;;;-0.98;75.01
12973;BME280;6551;51.056;9.466;2023-01-29T01:47:45;98768.41;;;-1.14;75.15
12973;BME280;6551;51.056;9.466;2023-01-29T01:50:40;98767.56;;;-1.26;76.63
12973;BME280;6551;51.056;9.466;2023-01-29T01:53:13;98765.28;;;-1.19;77.39
12973;BME280;6551;51.056;9.466;2023-01-29T01:56:14;98757.56;;;-1.21;76.61
12973;BME280;6551;51.056;9.466;2023-01-29T01:58:49;98765.66;;;-1.12;76.69
12973;BME280;6551;51.056;9.466;2023-01-29T02:01:17;98764.34;;;-1.07;76.28
12973;BME280;6551;51.056;9.466;2023-01-29T02:04:00;98769.19;;;-1.02;75.67
12973;BME280;6551;51.056;9.466;2023-01-29T02:07:10;98765.19;;;-1.06;76.62
12973;BME280;6551;51.056;9.466;2023-01-29T02:10:23;98761.13;;;-0.99;76.71
12973;BME280;6551;51.056;9.466;2023-01-29T02:12:51;98754.50;;;-0.92;76.93
12973;BME280;6551;51.056;9.466;2023-01-29T02:15:18;98754.72;;;-0.95;76.99
12973;BME280;6551;51.056;9.466;2023-01-29T02:17:44;98764.72;;;-0.89;76.25
12973;BME280;6551;51.056;9.466;2023-01-29T02:20:29;98758.63;;;-0.79;75.71
12973;BME280;6551;51.056;9.466;2023-01-29T02:23:44;98761.84;;;-0.86;76.06
12973;BME280;6551;51.056;9.466;2023-01-29T02:29:12;98749.00;;;-0.78;75.04
12973;BME280;6551;51.056;9.466;2023-01-29T02:35:41;98738.00;;;-0.61;76.35
12973;BME280;6551;51.056;9.466;2023-01-29T02:38:38;98735.38;;;-0.50;76.50
12973;BME280;6551;51.056;9.466;2023-01-29T02:41:19;98727.53;;;-0.50;75.62
12973;BME280;6551;51.056;9.466;2023-01-29T02:44:00;98732.47;;;-0.36;75.83
12973;BME280;6551;51.056;9.466;2023-01-29T02:46:46;98729.09;;;-0.16;76.09
12973;BME280;6551;51.056;9.466;2023-01-29T02:52:22;98727.34;;;0.06;75.69
12973;BME280;6551;51.056;9.466;2023-01-29T02:55:05;98732.00;;;0.02;75.04
12973;BME280;6551;51.056;9.466;2023-01-29T02:57:38;98725.22;;;-0.01;75.30
12973;BME280;6551;51.056;9.466;2023-01-29T03:00:29;98723.28;;;0.02;74.74
12973;BME280;6551;51.056;9.466;2023-01-29T03:03:19;98731.28;;;0.21;74.96
12973;BME280;6551;51.056;9.466;2023-01-29T03:09:11;98728.84;;;0.29;74.35
12973;BME280;6551;51.056;9.466;2023-01-29T03:11:45;98738.13;;;0.33;74.62
12973;BME280;6551;51.056;9.466;2023-01-29T03:14:23;98736.38;;;0.43;73.87
12973;BME280;6551;51.056;9.466;2023-01-29T03:16:52;98758.44;;;0.61;74.10
12973;BME280;6551;51.056;9.466;2023-01-29T03:19:40;98762.53;;;0.84;74.39
12973;BME280;6551;51.056;9.466;2023-01-29T03:22:07;98758.34;;;0.72;73.46
12973;BME280;6551;51.056;9.466;2023-01-29T03:24:52;98762.78;;;0.81;72.70
12973;BME280;6551;51.056;9.466;2023-01-29T03:27:51;98754.66;;;0.75;72.79
12973;BME280;6551;51.056;9.466;2023-01-29T03:30:55;98749.91;;;0.69;72.94
12973;BME280;6551;51.056;9.466;2023-01-29T03:34:12;98758.63;;;0.69;72.22
12973;BME280;6551;51.056;9.466;2023-01-29T03:39:16;98744.00;;;0.46;72.86
12973;BME280;6551;51.056;9.466;2023-01-29T03:45:22;98738.31;;;0.41;72.68
12973;BME280;6551;51.056;9.466;2023-01-29T03:48:16;98747.44;;;0.26;71.69
12973;BME280;6551;51.056;9.466;2023-01-29T03:54:02;98752.38;;;0.19;72.13
12973;BME280;6551;51.056;9.466;2023-01-29T03:56:38;98752.53;;;0.07;71.49
12973;BME280;6551;51.056;9.466;2023-01-29T03:59:52;98752.47;;;-0.03;71.44
12973;BME280;6551;51.056;9.466;2023-01-29T04:02:28;98765.47;;;-0.13;71.67
12973;BME280;6551;51.056;9.466;2023-01-29T04:05:10;98774.84;;;-0.10;71.66
12973;BME280;6551;51.056;9.466;2023-01-29T04:07:39;98758.59;;;-0.25;71.55
12973;BME280;6551;51.056;9.466;2023-01-29T04:10:18;98762.28;;;-0.59;71.82
12973;BME280;6551;51.056;9.466;2023-01-29T04:12:55;98749.13;;;-0.80;72.11
12973;BME280;6551;51.056;9.466;2023-01-29T04:15:29;98748.28;;;-0.91;72.58
12973;BME280;6551;51.056;9.466;2023-01-29T04:17:58;98740.59;;;-1.04;72.87
12973;BME280;6551;51.056;9.466;2023-01-29T04:20:26;98735.59;;;-1.18;73.78
12973;BME280;6551;51.056;9.466;2023-01-29T04:22:52;98732.75;;;-1.15;73.46
12973;BME280;6551;51.056;9.466;2023-01-29T04:25:31;98736.91;;;-1.12;73.07
12973;BME280;6551;51.056;9.466;2023-01-29T04:28:18;98731.56;;;-1.11;72.79
12973;BME280;6551;51.056;9.466;2023-01-29T04:31:06;98725.16;;;-1.07;73.56
12973;BME280;6551;51.056;9.466;2023-01-29T04:34:22;98719.00;;;-1.17;73.57
12973;BME280;6551;51.056;9.466;2023-01-29T04:37:15;98704.84;;;-1.14;73.78
12973;BME280;6551;51.056;9.466;2023-01-29T04:39:55;98701.50;;;-1.17;72.72
12973;BME280;6551;51.056;9.466;2023-01-29T04:42:47;98704.72;;;-1.13;72.60
12973;BME280;6551;51.056;9.466;2023-01-29T04:51:11;98694.03;;;-1.10;75.39
12973;BME280;6551;51.056;9.466;2023-01-29T04:56:45;98706.63;;;-1.04;75.00
12973;BME280;6551;51.056;9.466;2023-01-29T04:59:24;98707.22;;;-1.11;75.35
12973;BME280;6551;51.056;9.466;2023-01-29T05:01:54;98700.81;;;-1.19;75.45
12973;BME280;6551;51.056;9.466;2023-01-29T05:04:21;98701.88;;;-1.21;75.24
12973;BME280;6551;51.056;9.466;2023-01-29T05:06:50;98698.56;;;-1.23;76.12
12973;BME280;6551;51.056;9.466;2023-01-29T05:09:18;98693.19;;;-1.10;75.71
12973;BME280;6551;51.056;9.466;2023-01-29T05:11:48;98686.56;;;-1.14;75.82
12973;BME280;6551;51.056;9.466;2023-01-29T05:14:17;98681.81;;;-1.09;75.63
12973;BME280;6551;51.056;9.466;2023-01-29T05:16:48;98683.47;;;-1.08;75.65
12973;BME280;6551;51.056;9.466;2023-01-29T05:19:15;98682.63;;;-1.09;75.07
12973;BME280;6551;51.056;9.466;2023-01-29T05:21:44;98679.56;;;-1.14;75.25
12973;BME280;6551;51.056;9.466;2023-01-29T05:24:20;98673.38;;;-1.13;75.37
12973;BME280;6551;51.056;9.466;2023-01-29T05:26:48;98679.19;;;-1.09;75.85
12973;BME280;6551;51.056;9.466;2023-01-29T05:29:33;98664.00;;;-1.15;75.81
12973;BME280;6551;51.056;9.466;2023-01-29T05:32:00;98674.81;;;-1.09;75.68
12973;BME280;6551;51.056;9.466;2023-01-29T05:34:27;98663.72;;;-1.01;75.50
12973;BME280;6551;51.056;9.466;2023-01-29T05:36:54;98660.03;;;-0.99;75.28
12973;BME280;6551;51.056;9.466;2023-01-29T05:39:19;98655.06;;;-1.13;75.55
12973;BME280;6551;51.056;9.466;2023-01-29T05:41:46;98651.50;;;-1.01;75.70
12973;BME280;6551;51.056;9.466;2023-01-29T05:44:13;98648.28;;;-1.04;76.14
12973;BME280;6551;51.056;9.466;2023-01-29T05:46:39;98638.44;;;-1.01;76.28
12973;BME280;6551;51.056;9.466;2023-01-29T05:49:05;98640.91;;;-0.99;76.15
12973;BME280;6551;51.056;9.466;2023-01-29T05:51:31;98646.59;;;-0.94;75.63
12973;BME280;6551;51.056;9.466;2023-01-29T05:53:57;98646.50;;;-0.93;76.04
12973;BME280;6551;51.056;9.466;2023-01-29T05:56:23;98653.88;;;-0.98;75.27
12973;BME280;6551;51.056;9.466;2023-01-29T05:58:50;98652.84;;;-1.17;75.87
12973;BME280;6551;51.056;9.466;2023-01-29T06:01:20;98655.78;;;-1.11;75.71
12973;BME280;6551;51.056;9.466;2023-01-29T06:03:48;98655.31;;;-1.05;76.19
12973;BME280;6551;51.056;9.466;2023-01-29T06:06:15;98661.13;;;-1.12;75.59
12973;BME280;6551;51.056;9.466;2023-01-29T06:08:41;98654.97;;;-1.11;76.07
12973;BME280;6551;51.056;9.466;2023-01-29T06:11:09;98665.44;;;-1.11;77.19
12973;BME280;6551;51.056;9.466;2023-01-29T06:13:36;98660.53;;;-1.05;77.18
12973;BME280;6551;51.056;9.466;2023-01-29T06:16:07;98663.50;;;-0.98;76.89
12973;BME280;6551;51.056;9.466;2023-01-29T06:18:34;98668.59;;;-0.97;76.75
12973;BME280;6551;51.056;9.466;2023-01-29T06:21:06;98678.91;;;-0.84;76.10
12973;BME280;6551;51.056;9.466;2023-01-29T06:23:33;98681.28;;;-0.81;75.58
12973;BME280;6551;51.056;9.466;2023-01-29T06:26:06;98693.06;;;-0.87;75.85
12973;BME280;6551;51.056;9.466;2023-01-29T06:28:34;98705.06;;;-0.84;75.52
12973;BME280;6551;51.056;9.466;2023-01-29T06:31:02;98711.44;;;-0.77;76.01
12973;BME280;6551;51.056;9.466;2023-01-29T06:33:29;98713.13;;;-0.87;75.49
12973;BME280;6551;51.056;9.466;2023-01-29T06:36:03;98713.22;;;-0.78;75.45
12973;BME280;6551;51.056;9.466;2023-01-29T06:38:29;98717.97;;;-0.83;75.67
12973;BME280;6551;51.056;9.466;2023-01-29T06:40:56;98719.03;;;-0.74;75.71
12973;BME280;6551;51.056;9.466;2023-01-29T06:43:22;98720.97;;;-0.87;75.96
12973;BME280;6551;51.056;9.466;2023-01-29T06:45:56;98718.97;;;-0.95;76.17
12973;BME280;6551;51.056;9.466;2023-01-29T06:48:26;98721.81;;;-0.98;76.90
12973;BME280;6551;51.056;9.466;2023-01-29T06:50:51;98715.16;;;-0.91;76.96
12973;BME280;6551;51.056;9.466;2023-01-29T06:53:20;98715.13;;;-0.80;77.33
12973;BME280;6551;51.056;9.466;2023-01-29T06:55:53;98706.94;;;-0.75;77.88
12973;BME280;6551;51.056;9.466;2023-01-29T06:58:20;98699.19;;;-0.77;77.43
12973;BME280;6551;51.056;9.466;2023-01-29T07:00:46;98716.66;;;-0.77;77.97
12973;BME280;6551;51.056;9.466;2023-01-29T07:03:12;98731.38;;;-0.65;78.24
12973;BME280;6551;51.056;9.466;2023-01-29T07:05:38;98722.84;;;-0.67;78.08
12973;BME280;6551;51.056;9.466;2023-01-29T07:08:05;98730.16;;;-0.61;77.83
12973;BME280;6551;51.056;9.466;2023-01-29T07:10:32;98740.38;;;-0.47;77.42
12973;BME280;6551;51.056;9.466;2023-01-29T07:12:59;98738.53;;;-0.35;77.28
12973;BME280;6551;51.056;9.466;2023-01-29T07:15:26;98743.09;;;-0.37;77.61
12973;BME280;6551;51.056;9.466;2023-01-29T07:18:02;98734.31;;;-0.47;77.08
12973;BME280;6551;51.056;9.466;2023-01-29T07:20:40;98739.88;;;-0.41;77.14
12973;BME280;6551;51.056;9.466;2023-01-29T07:23:12;98747.81;;;-0.31;77.74
12973;BME280;6551;51.056;9.466;2023-01-29T07:25:39;98759.72;;;-0.38;77.18
12973;BME280;6551;51.056;9.466;2023-01-29T07:28:05;98779.03;;;-0.50;77.71
12973;BME280;6551;51.056;9.466;2023-01-29T07:30:32;98773.53;;;-0.36;77.36
12973;BME280;6551;51.056;9.466;2023-01-29T07:33:06;98746.56;;;-0.48;77.74
12973;BME280;6551;51.056;9.466;2023-01-29T07:35:41;98723.75;;;-0.57;78.10
12973;BME280;6551;51.056;9.466;2023-01-29T07:38:09;98713.44;;;-0.58;78.15
12973;BME280;6551;51.056;9.466;2023-01-29T07:40:35;98683.91;;;-0.49;78.28
12973;BME280;6551;51.056;9.466;2023-01-29T07:43:05;98686.03;;;-0.43;78.13
12973;BME280;6551;51.056;9.466;2023-01-29T07:45:35;98685.91;;;-0.42;78.28
12973;BME280;6551;51.056;9.466;2023-01-29T07:48:03;98697.53;;;-0.35;78.10
12973;BME280;6551;51.056;9.466;2023-01-29T07:50:33;98715.75;;;-0.13;77.08
12973;BME280;6551;51.056;9.466;2023-01-29T07:53:00;98706.41;;;-0.06;77.37
12973;BME280;6551;51.056;9.466;2023-01-29T07:55:26;98685.63;;;-0.07;77.04
12973;BME280;6551;51.056;9.466;2023-01-29T07:58:01;98700.94;;;-0.03;76.77
12973;BME280;6551;51.056;9.466;2023-01-29T08:00:30;98692.59;;;0.04;77.05
12973;BME280;6551;51.056;9.466;2023-01-29T08:03:08;98694.59;;;0.11;76.49
12973;BME280;6551;51.056;9.466;2023-01-29T08:05:36;98688.50;;;0.11;76.47
12973;BME280;6551;51.056;9.466;2023-01-29T08:08:04;98680.72;;;-0.01;76.33
12973;BME280;6551;51.056;9.466;2023-01-29T08:10:31;98681.75;;;0.08;76.83
12973;BME280;6551;51.056;9.466;2023-01-29T08:13:00;98699.34;;;0.06;76.80
12973;BME280;6551;51.056;9.466;2023-01-29T08:15:28;98706.88;;;0.20;77.08
12973;BME280;6551;51.056;9.466;2023-01-29T08:17:56;98706.50;;;0.25;76.39
12973;BME280;6551;51.056;9.466;2023-01-29T08:20:22;98691.53;;;0.36;76.33
12973;BME280;6551;51.056;9.466;2023-01-29T08:22:49;98697.06;;;0.33;75.79
12973;BME280;6551;51.056;9.466;2023-01-29T08:25:23;98713.47;;;0.35;76.21
12973;BME280;6551;51.056;9.466;2023-01-29T08:27:49;98723.56;;;0.19;75.48
12973;BME280;6551;51.056;9.466;2023-01-29T08:30:14;98733.00;;;0.31;75.72
12973;BME280;6551;51.056;9.466;2023-01-29T08:32:41;98738.91;;;0.44;75.53
12973;BME280;6551;51.056;9.466;2023-01-29T08:35:07;98739.09;;;0.52;75.45
12973;BME280;6551;51.056;9.466;2023-01-29T08:37:35;98740.69;;;0.44;75.64
12973;BME280;6551;51.056;9.466;2023-01-29T08:40:01;98748.34;;;0.36;75.84
12973;BME280;6551;51.056;9.466;2023-01-29T08:42:35;98743.16;;;0.45;75.17
12973;BME280;6551;51.056;9.466;2023-01-29T08:45:05;98738.91;;;0.44;75.39
12973;BME280;6551;51.056;9.466;2023-01-29T08:47:50;98737.34;;;0.42;75.94
12973;BME280;6551;51.056;9.466;2023-01-29T08:50:19;98728.41;;;0.44;75.48
12973;BME280;6551;51.056;9.466;2023-01-29T08:52:58;98721.53;;;0.53;75.33
12973;BME280;6551;51.056;9.466;2023-01-29T08:55:27;98731.47;;;0.49;75.23
12973;BME280;6551;51.056;9.466;2023-01-29T08:57:55;98723.44;;;0.72;75.08
12973;BME280;6551;51.056;9.466;2023-01-29T09:00:24;98719.34;;;0.79;74.89
12973;BME280;6551;51.056;9.466;2023-01-29T09:02:50;98704.97;;;0.73;74.90
12973;BME280;6551;51.056;9.466;2023-01-29T09:05:16;98713.25;;;0.78;74.32
12973;BME280;6551;51.056;9.466;2023-01-29T09:07:52;98699.94;;;0.91;74.41
12973;BME280;6551;51.056;9.466;2023-01-29T09:10:18;98702.56;;;0.91;74.15
12973;BME280;6551;51.056;9.466;2023-01-29T09:12:45;98697.06;;;1.03;74.14
12973;BME280;6551;51.056;9.466;2023-01-29T09:15:11;98704.41;;;1.00;73.81
12973;BME280;6551;51.056;9.466;2023-01-29T09:17:38;98698.97;;;0.92;74.15
12973;BME280;6551;51.056;9.466;2023-01-29T09:20:06;98693.88;;;0.90;73.97
12973;BME280;6551;51.056;9.466;2023-01-29T09:22:34;98683.13;;;0.93;74.33
12973;BME280;6551;51.056;9.466;2023-01-29T09:25:02;98678.72;;;0.94;74.46
12973;BME280;6551;51.056;9.466;2023-01-29T09:27:29;98669.44;;;0.90;74.60
12973;BME280;6551;51.056;9.466;2023-01-29T09:29:56;98681.97;;;0.86;73.94
12973;BME280;6551;51.056;9.466;2023-01-29T09:32:23;98675.50;;;0.90;74.01
12973;BME280;6551;51.056;9.466;2023-01-29T09:34:50;98673.72;;;0.91;74.10
12973;BME280;6551;51.056;9.466;2023-01-29T09:37:15;98674.69;;;0.90;74.23
12973;BME280;6551;51.056;9.466;2023-01-29T09:39:48;98674.47;;;1.12;74.34
12973;BME280;6551;51.056;9.466;2023-01-29T09:42:40;98667.97;;;1.06;74.31
12973;BME280;6551;51.056;9.466;2023-01-29T09:45:14;98666.31;;;1.15;74.32
12973;BME280;6551;51.056;9.466;2023-01-29T09:47:42;98669.94;;;1.24;73.84
12973;BME280;6551;51.056;9.466;2023-01-29T09:50:29;98668.28;;;1.42;73.88
12973;BME280;6551;51.056;9.466;2023-01-29T09:56:03;98670.38;;;1.86;72.18
12973;BME280;6551;51.056;9.466;2023-01-29T09:58:40;98654.75;;;1.75;71.96
12973;BME280;6551;51.056;9.466;2023-01-29T10:10:12;98655.06;;;1.72;71.17
12973;BME280;6551;51.056;9.466;2023-01-29T10:24:57;98652.16;;;1.85;70.47
12973;BME280;6551;51.056;9.466;2023-01-29T10:27:32;98652.16;;;1.85;70.44
12973;BME280;6551;51.056;9.466;2023-01-29T10:30:02;98647.19;;;1.91;70.75
12973;BME280;6551;51.056;9.466;2023-01-29T10:32:36;98643.81;;;2.08;70.47
12973;BME280;6551;51.056;9.466;2023-01-29T10:35:22;98641.88;;;2.10;70.73
12973;BME280;6551;51.056;9.466;2023-01-29T10:37:53;98631.63;;;2.17;70.06
12973;BME280;6551;51.056;9.466;2023-01-29T10:40:31;98622.94;;;2.07;70.32
12973;BME280;6551;51.056;9.466;2023-01-29T10:43:26;98616.88;;;2.06;70.54
12973;BME280;6551;51.056;9.466;2023-01-29T10:55:02;98606.00;;;1.82;71.61
12973;BME280;6551;51.056;9.466;2023-01-29T10:58:04;98611.22;;;2.01;71.76
12973;BME280;6551;51.056;9.466;2023-01-29T11:00:38;98586.84;;;2.09;70.77
12973;BME280;6551;51.056;9.466;2023-01-29T11:03:32;98579.16;;;1.98;70.65
12973;BME280;6551;51.056;9.466;2023-01-29T11:06:22;98569.03;;;2.12;70.14
12973;BME280;6551;51.056;9.466;2023-01-29T11:12:13;98558.16;;;2.34;69.76
12973;BME280;6551;51.056;9.466;2023-01-29T11:17:27;98551.78;;;2.37;69.00
12973;BME280;6551;51.056;9.466;2023-01-29T11:19:54;98553.06;;;2.33;69.63
12973;BME280;6551;51.056;9.466;2023-01-29T11:22:28;98559.38;;;2.40;69.38
12973;BME280;6551;51.056;9.466;2023-01-29T11:25:18;98556.25;;;2.54;69.15
12973;BME280;6551;51.056;9.466;2023-01-29T11:27:47;98556.81;;;2.58;68.52
12973;BME280;6551;51.056;9.466;2023-01-29T11:30:37;98547.91;;;2.59;68.42
12973;BME280;6551;51.056;9.466;2023-01-29T11:33:21;98540.03;;;2.86;68.22
12973;BME280;6551;51.056;9.466;2023-01-29T11:35:50;98545.38;;;2.94;68.35
12973;BME280;6551;51.056;9.466;2023-01-29T11:38:28;98534.00;;;2.76;68.27
12973;BME280;6551;51.056;9.466;2023-01-29T11:41:07;98535.81;;;2.93;67.74
12973;BME280;6551;51.056;9.466;2023-01-29T11:43:39;98524.91;;;3.06;67.59
12973;BME280;6551;51.056;9.466;2023-01-29T11:46:11;98512.22;;;3.19;67.20
12973;BME280;6551;51.056;9.466;2023-01-29T11:48:47;98501.16;;;3.33;66.79
12973;BME280;6551;51.056;9.466;2023-01-29T11:51:28;98507.81;;;3.45;66.56
12973;BME280;6551;51.056;9.466;2023-01-29T11:54:01;98500.09;;;3.43;66.33
12973;BME280;6551;51.056;9.466;2023-01-29T11:56:41;98502.16;;;3.58;65.91
12973;BME280;6551;51.056;9.466;2023-01-29T11:59:32;98490.50;;;3.86;65.88
12973;BME280;6551;51.056;9.466;2023-01-29T12:02:29;98496.41;;;4.13;65.54
12973;BME280;6551;51.056;9.466;2023-01-29T12:05:02;98494.75;;;4.54;64.11
12973;BME280;6551;51.056;9.466;2023-01-29T12:07:30;98486.91;;;4.87;63.16
12973;BME280;6551;51.056;9.466;2023-01-29T12:09:58;98490.25;;;5.21;62.11
12973;BME280;6551;51.056;9.466;2023-01-29T12:12:40;98489.88;;;5.72;61.38
12973;BME280;6551;51.056;9.466;2023-01-29T12:15:22;98476.47;;;5.98;60.54
12973;BME280;6551;51.056;9.466;2023-01-29T12:18:29;98479.72;;;6.08;59.71
12973;BME280;6551;51.056;9.466;2023-01-29T12:21:01;98480.13;;;5.89;59.41
12973;BME280;6551;51.056;9.466;2023-01-29T12:24:35;98477.53;;;5.32;60.72
12973;BME280;6551;51.056;9.466;2023-01-29T12:27:31;98470.75;;;5.06;61.07
12973;BME280;6551;51.056;9.466;2023-01-29T12:30:30;98467.28;;;4.81;62.40
12973;BME280;6551;51.056;9.466;2023-01-29T12:36:25;98462.78;;;4.07;64.03
12973;BME280;6551;51.056;9.466;2023-01-29T12:38:55;98464.25;;;4.02;64.62
12973;BME280;6551;51.056;9.466;2023-01-29T12:44:17;98450.63;;;3.81;65.51
12973;BME280;6551;51.056;9.466;2023-01-29T12:46:49;98442.25;;;3.85;65.46
12973;BME280;6551;51.056;9.466;2023-01-29T12:49:32;98435.59;;;3.73;66.21
12973;BME280;6551;51.056;9.466;2023-01-29T12:52:18;98426.16;;;3.63;65.88
12973;BME280;6551;51.056;9.466;2023-01-29T12:55:19;98412.91;;;3.46;66.53
12973;BME280;6551;51.056;9.466;2023-01-29T12:57:57;98421.66;;;3.47;66.51
12973;BME280;6551;51.056;9.466;2023-01-29T13:00:38;98415.25;;;3.49;67.22
12973;BME280;6551;51.056;9.466;2023-01-29T13:03:28;98426.66;;;3.58;66.99
12973;BME280;6551;51.056;9.466;2023-01-29T13:06:10;98421.00;;;3.53;66.89
12973;BME280;6551;51.056;9.466;2023-01-29T13:08:47;98417.72;;;3.51;67.03
12973;BME280;6551;51.056;9.466;2023-01-29T13:17:36;98393.75;;;3.36;68.18
12973;BME280;6551;51.056;9.466;2023-01-29T13:20:25;98404.13;;;3.64;67.61
12973;BME280;6551;51.056;9.466;2023-01-29T13:23:48;98401.56;;;3.80;67.08
12973;BME280;6551;51.056;9.466;2023-01-29T13:26:20;98394.97;;;3.76;66.84
12973;BME280;6551;51.056;9.466;2023-01-29T13:28:46;98393.00;;;3.44;66.99
12973;BME280;6551;51.056;9.466;2023-01-29T13:31:36;98377.91;;;3.54;67.52
12973;BME280;6551;51.056;9.466;2023-01-29T13:34:08;98374.09;;;3.48;67.53
12973;BME280;6551;51.056;9.466;2023-01-29T13:36:44;98371.25;;;3.42;68.02
12973;BME280;6551;51.056;9.466;2023-01-29T13:39:33;98367.81;;;3.41;68.25
12973;BME280;6551;51.056;9.466;2023-01-29T13:42:21;98359.97;;;3.24;68.63
12973;BME280;6551;51.056;9.466;2023-01-29T13:44:55;98371.34;;;3.24;69.08
12973;BME280;6551;51.056;9.466;2023-01-29T13:47:51;98372.22;;;3.33;68.71
12973;BME280;6551;51.056;9.466;2023-01-29T13:50:31;98365.13;;;3.33;68.84
12973;BME280;6551;51.056;9.466;2023-01-29T13:53:01;98367.84;;;3.49;69.07
12973;BME280;6551;51.056;9.466;2023-01-29T13:55:39;98361.19;;;3.37;68.89
12973;BME280;6551;51.056;9.466;2023-01-29T13:58:15;98364.94;;;3.61;69.19
12973;BME280;6551;51.056;9.466;2023-01-29T14:05:42;98352.34;;;3.38;69.36
12973;BME280;6551;51.056;9.466;2023-01-29T14:10:43;98356.88;;;3.28;69.42
12973;BME280;6551;51.056;9.466;2023-01-29T14:18:25;98352.66;;;3.10;70.16
12973;BME280;6551;51.056;9.466;2023-01-29T14:24:15;98351.50;;;3.12;70.38
12973;BME280;6551;51.056;9.466;2023-01-29T14:26:44;98356.72;;;3.04;70.27
12973;BME280;6551;51.056;9.466;2023-01-29T14:29:28;98353.69;;;2.91;70.36
12973;BME280;6551;51.056;9.466;2023-01-29T14:34:41;98347.97;;;2.78;70.77
12973;BME280;6551;51.056;9.466;2023-01-29T14:37:19;98341.44;;;2.82;70.63
12973;BME280;6551;51.056;9.466;2023-01-29T14:39:56;98342.00;;;2.68;70.84
12973;BME280;6551;51.056;9.466;2023-01-29T14:42:31;98349.53;;;2.63;70.82
12973;BME280;6551;51.056;9.466;2023-01-29T14:55:51;98338.88;;;2.47;71.17
12973;BME280;6551;51.056;9.466;2023-01-29T14:58:51;98344.03;;;2.56;71.21
12973;BME280;6551;51.056;9.466;2023-01-29T15:01:34;98342.69;;;2.52;71.48
12973;BME280;6551;51.056;9.466;2023-01-29T15:09:44;98352.75;;;2.39;71.65
12973;BME280;6551;51.056;9.466;2023-01-29T15:12:32;98342.63;;;2.44;71.86
12973;BME280;6551;51.056;9.466;2023-01-29T15:15:37;98344.72;;;2.41;71.19
12973;BME280;6551;51.056;9.466;2023-01-29T15:20:46;98346.00;;;2.36;71.32
12973;BME280;6551;51.056;9.466;2023-01-29T15:23:42;98350.22;;;2.29;71.44
12973;BME280;6551;51.056;9.466;2023-01-29T15:26:19;98348.47;;;2.38;71.47
12973;BME280;6551;51.056;9.466;2023-01-29T15:28:55;98359.19;;;2.45;71.47
12973;BME280;6551;51.056;9.466;2023-01-29T15:31:22;98355.09;;;2.24;71.75
12973;BME280;6551;51.056;9.466;2023-01-29T15:33:52;98352.53;;;2.15;71.77
12973;BME280;6551;51.056;9.466;2023-01-29T15:36:29;98358.31;;;2.18;71.40
12973;BME280;6551;51.056;9.466;2023-01-29T15:39:18;98350.47;;;2.09;71.00
12973;BME280;6551;51.056;9.466;2023-01-29T15:41:46;98349.06;;;2.14;71.25
12973;BME280;6551;51.056;9.466;2023-01-29T15:44:17;98343.59;;;2.08;71.36
12973;BME280;6551;51.056;9.466;2023-01-29T15:46:57;98348.31;;;2.04;71.14
12973;BME280;6551;51.056;9.466;2023-01-29T15:49:46;98340.81;;;2.09;71.03
12973;BME280;6551;51.056;9.466;2023-01-29T15:52:25;98337.13;;;2.02;71.15
12973;BME280;6551;51.056;9.466;2023-01-29T15:55:12;98332.38;;;1.88;71.42
12973;BME280;6551;51.056;9.466;2023-01-29T15:57:41;98331.66;;;1.96;70.90
12973;BME280;6551;51.056;9.466;2023-01-29T16:00:26;98329.63;;;2.07;71.23
12973;BME280;6551;51.056;9.466;2023-01-29T16:02:53;98337.22;;;2.10;71.03